Terminal Aerodrome Forecast
Issued by NWS Brownsville, TX

Home | Current Version | Previous Version | Text Only | Print | Product List | Glossary On
Versions: 1 2 3 4 5 6 7 8 9 10 11 12 13 14 15 16
000
FTUS44 KBRO 010032 AAB
TAFBRO
TAF AMD
KBRO 010032Z 0101/0124 11005KT P6SM -RA SCT060 OVC150
     FM010200 13004KT P6SM FEW025 BKN250
     FM011100 13005KT P6SM VCSH BKN030
     FM011400 15007KT P6SM BKN040=

USA.gov is the U.S. government's official web portal to all federal, state and local government web resources and services.